createdAt,value
2022-09-04T00:03:57.828Z,17.55
2022-09-04T00:09:00.429Z,17.47
2022-09-04T00:14:03.049Z,17.34
2022-09-04T00:19:05.598Z,17.29
2022-09-04T00:24:08.297Z,17.32
2022-09-04T00:29:10.984Z,17.2
2022-09-04T00:34:13.625Z,17.12
2022-09-04T00:39:15.996Z,17.1
2022-09-04T00:44:18.611Z,17
2022-09-04T00:49:21.221Z,16.99
2022-09-04T00:54:23.882Z,16.94
2022-09-04T00:59:26.440Z,16.85
2022-09-04T01:04:29.186Z,16.82
2022-09-04T01:09:31.661Z,16.74
2022-09-04T01:14:34.577Z,16.71
2022-09-04T01:19:37.192Z,16.69
2022-09-04T01:24:40.051Z,16.66
2022-09-04T01:29:42.747Z,16.57
2022-09-04T01:34:45.290Z,16.52
2022-09-04T01:39:48.136Z,16.51
2022-09-04T01:44:50.769Z,16.46
2022-09-04T01:49:53.345Z,16.45
2022-09-04T01:54:56.180Z,16.41
2022-09-04T01:59:58.984Z,16.43
2022-09-04T02:05:04.027Z,16.34
2022-09-04T02:10:04.203Z,16.31
2022-09-04T02:15:06.701Z,16.23
2022-09-04T02:20:09.470Z,16.23
2022-09-04T02:25:11.974Z,16.17
2022-09-04T02:30:14.638Z,16.16
2022-09-04T02:35:17.344Z,16.12
2022-09-04T02:40:19.828Z,16.08
2022-09-04T02:45:23.152Z,16.01
2022-09-04T02:50:25.549Z,16.02
2022-09-04T02:55:28.025Z,15.97
2022-09-04T03:00:30.791Z,15.95
2022-09-04T03:05:33.292Z,15.94
2022-09-04T03:10:35.796Z,15.9
2022-09-04T03:15:38.418Z,15.86
2022-09-04T03:20:41.031Z,15.8
2022-09-04T03:25:43.687Z,15.81
2022-09-04T03:30:46.202Z,15.84
2022-09-04T03:35:48.795Z,15.82
2022-09-04T03:40:51.598Z,15.81
2022-09-04T03:45:54.295Z,15.85
2022-09-04T03:50:57.022Z,15.77
2022-09-04T03:55:59.563Z,15.75
2022-09-04T04:01:02.301Z,15.71
2022-09-04T04:06:04.708Z,15.71
2022-09-04T04:11:07.171Z,15.61
2022-09-04T04:16:09.892Z,15.58
2022-09-04T04:21:12.522Z,15.55
2022-09-04T04:26:15.042Z,15.48
2022-09-04T04:31:17.780Z,15.43
2022-09-04T04:36:20.261Z,15.39
2022-09-04T04:41:22.922Z,15.38
2022-09-04T04:46:25.674Z,15.39
2022-09-04T04:51:28.418Z,15.36
2022-09-04T04:56:30.988Z,15.36
2022-09-04T05:01:33.782Z,15.37
2022-09-04T05:06:36.569Z,15.39
2022-09-04T05:11:39.098Z,15.41
2022-09-04T05:16:42.098Z,15.54
2022-09-04T05:21:44.747Z,15.72
2022-09-04T05:26:47.286Z,15.96
2022-09-04T05:31:49.901Z,16.16
2022-09-04T05:36:52.603Z,16.19
2022-09-04T05:41:55.415Z,16.41
2022-09-04T05:46:58.198Z,16.39
2022-09-04T05:52:00.840Z,16.57
2022-09-04T05:57:03.486Z,16.76
2022-09-04T06:02:06.496Z,16.56
2022-09-04T06:07:08.997Z,16.65
2022-09-04T06:12:14.108Z,16.77
2022-09-04T06:17:15.570Z,16.99
2022-09-04T06:22:18.243Z,16.96
2022-09-04T06:27:23.631Z,17.26
2022-09-04T06:32:26.306Z,17.36
2022-09-04T06:37:28.979Z,17.8
2022-09-04T06:42:31.520Z,17.69
2022-09-04T06:47:34.192Z,17.73
2022-09-04T06:52:37.255Z,18.21
2022-09-04T06:57:39.946Z,18.11
2022-09-04T07:02:42.901Z,18.35
2022-09-04T07:07:45.318Z,18.7
2022-09-04T07:12:50.782Z,18.05
2022-09-04T07:17:59.568Z,18.4
2022-09-04T07:22:58.855Z,18.57
2022-09-04T07:28:04.374Z,18.46
2022-09-04T07:33:06.837Z,18.51
2022-09-04T07:38:09.820Z,19.1
2022-09-04T07:43:12.301Z,19.31
2022-09-04T07:48:15.138Z,19.23
2022-09-04T07:53:17.695Z,19.45
2022-09-04T07:58:20.654Z,19.57
2022-09-04T08:03:23.207Z,20.02
2022-09-04T08:08:25.887Z,20.46
2022-09-04T08:13:28.640Z,19.99
2022-09-04T08:23:33.690Z,20.31
2022-09-04T08:28:36.427Z,20.78
2022-09-04T08:33:39.096Z,21.32
2022-09-04T08:38:42.036Z,21.54
2022-09-04T08:43:47.314Z,20.79
2022-09-04T08:48:49.893Z,21.62
2022-09-04T08:53:52.835Z,22.22
2022-09-04T08:58:55.666Z,22.52
2022-09-04T09:03:59.399Z,22.26
2022-09-04T09:09:02.118Z,22.43
2022-09-04T09:14:04.587Z,22.08
2022-09-04T09:19:07.175Z,22.07
2022-09-04T09:24:09.826Z,22.23
2022-09-04T09:29:13.364Z,22.35
2022-09-04T09:34:17.821Z,22.54
2022-09-04T09:39:20.550Z,22.31
2022-09-04T09:44:22.875Z,22.85
2022-09-04T09:54:28.058Z,22.44
2022-09-04T09:59:31.256Z,22.88
2022-09-04T10:04:34.153Z,22.68
2022-09-04T10:14:42.308Z,23.89
2022-09-04T10:19:45.105Z,24.07
2022-09-04T10:24:47.594Z,23.73
2022-09-04T10:29:50.520Z,24.17
2022-09-04T10:34:53.285Z,24.07
2022-09-04T10:39:55.996Z,24.08
2022-09-04T10:45:01.480Z,24.42
2022-09-04T10:50:04.168Z,24.87
2022-09-04T10:55:07.661Z,24.25
2022-09-04T11:05:13.600Z,24.12
2022-09-04T11:10:16.159Z,23.56
2022-09-04T11:15:21.646Z,24.12
2022-09-04T11:20:24.592Z,24.8
2022-09-04T11:25:27.441Z,24.55
2022-09-04T11:30:30.128Z,24.21
2022-09-04T11:35:32.989Z,24.57
2022-09-04T11:45:41.206Z,24.62
2022-09-04T11:50:43.988Z,25.16
2022-09-04T11:55:49.441Z,24.59
2022-09-04T12:00:49.236Z,24.65
2022-09-04T12:05:52.344Z,24.86
2022-09-04T12:10:55.188Z,24.74
2022-09-04T12:15:57.494Z,24.19
2022-09-04T12:21:00.015Z,24.28
2022-09-04T12:26:05.720Z,24.54
2022-09-04T12:31:11.494Z,24.05
2022-09-04T12:36:14.244Z,23.93
2022-09-04T12:41:16.844Z,24.23
2022-09-04T12:46:22.530Z,24.65
2022-09-04T12:51:25.366Z,24.7
2022-09-04T12:56:28.220Z,25
2022-09-04T13:01:31.334Z,24.87
2022-09-04T13:06:33.670Z,24.47
2022-09-04T13:16:38.994Z,24.36
2022-09-04T13:21:41.655Z,24.55
2022-09-04T13:26:44.240Z,24.28
2022-09-04T13:31:46.979Z,24.22
2022-09-04T13:36:49.810Z,24.83
2022-09-04T13:41:52.497Z,24.51
2022-09-04T13:46:55.351Z,24.4
2022-09-04T13:51:58.156Z,24.84
2022-09-04T13:57:01.505Z,25.02
2022-09-04T14:02:04.231Z,25.08
2022-09-04T14:07:07.105Z,25.47
2022-09-04T14:12:09.633Z,25.01
2022-09-04T14:17:12.255Z,25.03
2022-09-04T14:22:15.133Z,24.84
2022-09-04T14:27:17.937Z,24.91
2022-09-04T14:32:20.750Z,25.24
2022-09-04T14:47:28.990Z,24.9
2022-09-04T14:52:31.674Z,24.85
2022-09-04T14:57:34.796Z,24.58
2022-09-04T15:02:37.466Z,24.39
2022-09-04T15:07:40.226Z,24.28
2022-09-04T15:12:42.997Z,24.51
2022-09-04T15:17:47.292Z,24.28
2022-09-04T15:22:48.307Z,24.37
2022-09-04T15:27:50.879Z,24.47
2022-09-04T15:32:53.511Z,24.17
2022-09-04T15:37:59.264Z,24.1
2022-09-04T15:42:59.049Z,24.11
2022-09-04T15:48:01.766Z,24.25
2022-09-04T15:53:04.437Z,24.05
2022-09-04T15:58:07.001Z,24.12
2022-09-04T16:03:09.539Z,24.01
2022-09-04T16:08:12.149Z,23.98
2022-09-04T16:13:14.723Z,23.95
2022-09-04T16:18:17.553Z,24.01
2022-09-04T16:23:20.298Z,23.91
2022-09-04T16:28:22.934Z,23.95
2022-09-04T16:33:27.921Z,23.92
2022-09-04T16:38:28.270Z,23.77
2022-09-04T16:43:30.591Z,23.64
2022-09-04T16:48:34.464Z,23.67
2022-09-04T16:53:35.842Z,23.31
2022-09-04T16:58:38.448Z,23.28
2022-09-04T17:03:41.211Z,23.25
2022-09-04T17:08:43.870Z,23.2
2022-09-04T17:13:46.548Z,23.12
2022-09-04T17:18:49.155Z,23.02
2022-09-04T17:27:24.622Z,22.98
2022-09-04T17:29:19.914Z,22.83
2022-09-04T17:36:21.966Z,22.74
2022-09-04T17:41:00.598Z,22.59
2022-09-04T17:44:02.949Z,22.41
2022-09-04T17:49:05.387Z,22.34
2022-09-04T17:54:08.113Z,22.2
2022-09-04T17:59:10.734Z,22.11
2022-09-04T18:04:21.379Z,21.97
2022-09-04T18:09:18.690Z,21.87
2022-09-04T18:14:18.603Z,21.78
2022-09-04T18:19:21.242Z,21.71
2022-09-04T18:24:23.849Z,21.64
2022-09-04T18:29:33.882Z,21.5
2022-09-04T18:37:14.016Z,21.45
2022-09-04T18:39:31.743Z,21.37
2022-09-04T18:50:26.202Z,21.32
2022-09-04T18:50:27.469Z,21.27
2022-09-04T18:54:39.986Z,21.18
2022-09-04T18:59:42.471Z,21.17
2022-09-04T19:04:45.171Z,21.17
2022-09-04T19:09:48.746Z,21.12
2022-09-04T19:14:50.349Z,20.98
2022-09-04T19:19:52.974Z,20.99
2022-09-04T19:24:55.733Z,20.89
2022-09-04T19:30:01.634Z,20.82
2022-09-04T19:35:01.129Z,20.71
2022-09-04T19:41:21.908Z,20.68
2022-09-04T19:46:10.804Z,20.6
2022-09-04T19:53:11.494Z,20.52
2022-09-04T19:55:24.303Z,20.53
2022-09-04T20:00:33.691Z,20.44
2022-09-04T20:05:16.433Z,20.41
2022-09-04T20:10:19.104Z,20.35
2022-09-04T20:15:21.710Z,20.33
2022-09-04T20:20:24.248Z,20.2
2022-09-04T20:25:29.900Z,20.16
2022-09-04T20:30:32.655Z,20.13
2022-09-04T20:35:35.150Z,20.02
2022-09-04T20:40:37.658Z,19.99
2022-09-04T20:46:26.475Z,19.88
2022-09-04T20:53:00.843Z,19.84
2022-09-04T20:55:48.746Z,19.8
2022-09-04T21:03:16.302Z,19.75
2022-09-04T21:10:56.988Z,19.62
2022-09-04T21:15:59.755Z,19.55
2022-09-04T21:21:02.316Z,19.51
2022-09-04T21:31:07.605Z,19.28
2022-09-04T21:36:25.882Z,19.32
2022-09-04T21:41:12.747Z,19.22
2022-09-04T21:51:29.066Z,19.09
2022-09-04T21:58:15.944Z,19
2022-09-04T22:06:57.043Z,18.97
2022-09-04T22:13:27.992Z,18.92
2022-09-04T22:21:45.736Z,18.81
2022-09-04T22:26:51.263Z,18.79
2022-09-04T22:31:54.119Z,18.68
2022-09-04T22:36:59.144Z,18.63
2022-09-04T22:41:59.583Z,18.61
2022-09-04T22:47:02.301Z,18.51
2022-09-04T22:52:11.489Z,18.48
2022-09-04T22:57:14.233Z,18.51
2022-09-04T23:02:17.117Z,18.46
2022-09-04T23:26:40.466Z,18.24
2022-09-04T23:27:29.600Z,18.16
2022-09-04T23:33:18.292Z,18.18
2022-09-04T23:38:21.224Z,18.23
2022-09-04T23:43:24.144Z,18.2
2022-09-04T23:48:26.710Z,18.11
2022-09-04T23:53:32.111Z,18.08
2022-09-04T23:58:35.128Z,17.98
